createdAt,value
2017-03-02T00:00:06.346Z,0
2017-03-02T00:01:16.988Z,0
2017-03-02T00:02:26.362Z,0
2017-03-02T00:03:36.111Z,0
2017-03-02T00:04:45.851Z,0
2017-03-02T00:05:55.611Z,0
2017-03-02T00:07:06.688Z,0
2017-03-02T00:08:16.947Z,0
2017-03-02T00:09:26.760Z,0
2017-03-02T00:10:36.940Z,0
2017-03-02T00:11:47.154Z,0
2017-03-02T00:12:57.338Z,0
2017-03-02T00:14:07.199Z,0
2017-03-02T00:15:18.285Z,0
2017-03-02T00:16:28.495Z,0
2017-03-02T00:17:37.808Z,0
2017-03-02T00:18:48.020Z,0
2017-03-02T00:19:58.694Z,0
2017-03-02T00:21:08.437Z,0
2017-03-02T00:22:18.185Z,0
2017-03-02T00:23:27.950Z,0
2017-03-02T00:24:38.587Z,0
2017-03-02T00:25:48.826Z,0
2017-03-02T00:26:59.018Z,0
2017-03-02T00:28:08.786Z,0
2017-03-02T00:29:18.971Z,0
2017-03-02T00:30:29.165Z,0
2017-03-02T00:31:39.414Z,0
2017-03-02T00:32:49.179Z,0
2017-03-02T00:33:58.487Z,0
2017-03-02T00:35:09.121Z,0
2017-03-02T00:36:19.733Z,0
2017-03-02T00:37:29.982Z,0
2017-03-02T00:38:40.168Z,0
2017-03-02T00:39:50.346Z,0
2017-03-02T00:41:00.111Z,0
2017-03-02T00:42:09.862Z,0
2017-03-02T00:43:20.104Z,0
2017-03-02T00:44:30.730Z,0
2017-03-02T00:45:40.082Z,0
2017-03-02T00:46:50.288Z,0
2017-03-02T00:48:00.457Z,0
2017-03-02T00:50:24.583Z,0
2017-03-02T00:51:36.005Z,0
2017-03-02T00:52:46.548Z,0
2017-03-02T00:53:57.089Z,0
2017-03-02T00:55:07.762Z,0
2017-03-02T00:56:18.418Z,0
2017-03-02T00:57:28.653Z,0
2017-03-02T00:58:38.398Z,0
2017-03-02T00:59:48.615Z,0
2017-03-02T01:00:59.930Z,0
2017-03-02T01:02:09.242Z,0
2017-03-02T01:03:19.864Z,0
2017-03-02T01:04:30.486Z,0
2017-03-02T01:05:39.858Z,0
2017-03-02T01:06:50.980Z,0
2017-03-02T01:08:01.198Z,0
2017-03-02T01:09:10.943Z,0
2017-03-02T01:10:21.171Z,0
2017-03-02T01:11:31.391Z,0
2017-03-02T01:12:41.190Z,0
2017-03-02T01:13:51.366Z,0
2017-03-02T01:15:00.705Z,0
2017-03-02T01:16:10.040Z,0
2017-03-02T01:17:20.663Z,0
2017-03-02T01:18:30.908Z,0
2017-03-02T01:19:41.129Z,0
2017-03-02T01:20:51.339Z,0
2017-03-02T01:22:01.096Z,0
2017-03-02T01:23:10.848Z,0
2017-03-02T01:24:21.101Z,0
2017-03-02T01:25:31.730Z,0
2017-03-02T01:26:42.369Z,0
2017-03-02T01:27:52.546Z,0
2017-03-02T01:29:02.726Z,0
2017-03-02T01:30:12.747Z,0
2017-03-02T01:31:22.942Z,0
2017-03-02T01:32:33.554Z,0
2017-03-02T01:33:43.332Z,0
2017-03-02T01:34:53.529Z,0
2017-03-02T01:36:03.757Z,0
2017-03-02T01:37:14.419Z,0
2017-03-02T01:38:23.740Z,0
2017-03-02T01:39:33.942Z,0
2017-03-02T01:40:44.131Z,0
2017-03-02T01:41:54.375Z,0
2017-03-02T01:43:04.128Z,0
2017-03-02T01:44:14.749Z,0
2017-03-02T01:45:24.955Z,0
2017-03-02T01:46:35.601Z,0
2017-03-02T01:47:45.423Z,0
2017-03-02T01:48:55.163Z,0
2017-03-02T01:50:05.796Z,0
2017-03-02T01:51:15.117Z,0
2017-03-02T01:52:26.186Z,0
2017-03-02T01:53:37.475Z,0
2017-03-02T01:54:48.553Z,0
2017-03-02T01:55:58.728Z,0
2017-03-02T01:57:09.368Z,0
2017-03-02T01:58:19.544Z,0
2017-03-02T01:59:29.465Z,0
2017-03-02T02:00:39.664Z,0
2017-03-02T02:01:49.437Z,0
2017-03-02T02:02:59.185Z,0
2017-03-02T02:04:10.264Z,0
2017-03-02T02:05:19.645Z,0
2017-03-02T02:06:29.434Z,0
2017-03-02T02:07:40.502Z,0
2017-03-02T02:08:50.703Z,0
2017-03-02T02:10:00.011Z,0
2017-03-02T02:11:10.263Z,0
2017-03-02T02:12:20.919Z,0
2017-03-02T02:13:31.534Z,0
2017-03-02T02:14:40.855Z,0
2017-03-02T02:15:50.595Z,0
2017-03-02T02:17:01.279Z,0
2017-03-02T02:18:11.029Z,0
2017-03-02T02:19:21.239Z,0
2017-03-02T02:20:31.884Z,0
2017-03-02T02:21:41.233Z,0
2017-03-02T02:22:51.482Z,0
2017-03-02T02:24:01.692Z,0
2017-03-02T02:25:11.033Z,0
2017-03-02T02:26:21.243Z,0
2017-03-02T02:27:30.580Z,0
2017-03-02T02:28:40.162Z,0
2017-03-02T02:29:50.350Z,0
2017-03-02T02:31:00.544Z,0
2017-03-02T02:32:09.857Z,0
2017-03-02T02:33:19.174Z,0
2017-03-02T02:34:29.000Z,0
2017-03-02T02:35:39.209Z,0
2017-03-02T02:36:49.428Z,0
2017-03-02T02:37:59.618Z,0
2017-03-02T02:39:09.817Z,0
2017-03-02T02:40:19.626Z,0
2017-03-02T02:41:29.827Z,0
2017-03-02T02:42:40.463Z,0
2017-03-02T02:43:50.223Z,0
2017-03-02T02:45:00.419Z,0
2017-03-02T02:46:09.804Z,0
2017-03-02T02:47:19.996Z,0
2017-03-02T02:48:29.766Z,0
2017-03-02T02:49:39.511Z,0
2017-03-02T02:50:49.716Z,0
2017-03-02T02:51:59.554Z,0
2017-03-02T02:53:08.898Z,0
2017-03-02T02:54:18.692Z,0
2017-03-02T02:55:28.446Z,0
2017-03-02T02:56:38.637Z,0
2017-03-02T02:57:48.438Z,0
2017-03-02T02:58:58.222Z,0
2017-03-02T03:00:07.553Z,0
2017-03-02T03:01:17.759Z,0
2017-03-02T03:02:27.073Z,0
2017-03-02T03:03:37.330Z,0
2017-03-02T03:04:47.126Z,0
2017-03-02T03:05:56.889Z,0
2017-03-02T03:07:06.214Z,0
2017-03-02T03:08:15.537Z,0
2017-03-02T03:09:26.219Z,0
2017-03-02T03:10:35.965Z,0
2017-03-02T03:11:45.322Z,0
2017-03-02T03:12:55.119Z,0
2017-03-02T03:14:04.889Z,0
2017-03-02T03:15:15.154Z,0
2017-03-02T03:16:25.347Z,0
2017-03-02T03:17:35.093Z,0
2017-03-02T03:18:45.289Z,0
2017-03-02T03:19:54.603Z,0
2017-03-02T03:21:04.436Z,0
2017-03-02T03:22:14.186Z,0
2017-03-02T03:23:23.937Z,0
2017-03-02T03:24:34.164Z,0
2017-03-02T03:25:43.903Z,0
2017-03-02T03:26:53.805Z,0
2017-03-02T03:28:04.449Z,0
2017-03-02T03:29:14.201Z,0
2017-03-02T03:30:23.510Z,0
2017-03-02T03:31:33.335Z,0
2017-03-02T03:32:42.711Z,0
2017-03-02T03:33:52.912Z,0
2017-03-02T03:35:02.672Z,0
2017-03-02T03:36:12.012Z,0
2017-03-02T03:37:21.332Z,0
2017-03-02T03:38:30.749Z,0
2017-03-02T03:39:40.522Z,0
2017-03-02T03:40:50.737Z,0
2017-03-02T03:42:00.050Z,0
2017-03-02T03:43:09.799Z,0
2017-03-02T03:44:19.621Z,0
2017-03-02T03:45:28.952Z,0
2017-03-02T03:46:39.161Z,0
2017-03-02T03:47:48.919Z,0
2017-03-02T03:48:58.689Z,0
2017-03-02T03:50:08.502Z,0
2017-03-02T03:51:18.723Z,0
2017-03-02T03:52:28.955Z,0
2017-03-02T03:53:38.701Z,0
2017-03-02T03:54:48.926Z,0
2017-03-02T03:55:58.300Z,0
2017-03-02T03:57:08.065Z,0
2017-03-02T03:58:17.830Z,0
2017-03-02T03:59:27.154Z,0
2017-03-02T04:00:36.930Z,0
2017-03-02T04:01:47.617Z,0
2017-03-02T04:02:57.823Z,0
2017-03-02T04:04:07.583Z,0
2017-03-02T04:05:18.205Z,0
2017-03-02T04:06:27.526Z,0
2017-03-02T04:07:37.786Z,0
2017-03-02T04:08:47.579Z,0
2017-03-02T04:09:57.775Z,0
2017-03-02T04:11:07.587Z,0
2017-03-02T04:12:18.204Z,0
2017-03-02T04:13:27.584Z,0
2017-03-02T04:14:37.350Z,0
2017-03-02T04:15:47.540Z,0
2017-03-02T04:16:57.288Z,0
2017-03-02T04:18:06.609Z,0
2017-03-02T04:19:16.011Z,0
2017-03-02T04:20:25.770Z,0
2017-03-02T04:21:35.976Z,0
2017-03-02T04:22:46.170Z,0
2017-03-02T04:23:56.379Z,0
2017-03-02T04:25:06.616Z,0
2017-03-02T04:26:16.412Z,0
2017-03-02T04:27:26.614Z,0
2017-03-02T04:28:36.376Z,0
2017-03-02T04:29:46.573Z,0
2017-03-02T04:30:55.927Z,0
2017-03-02T04:32:05.250Z,0
2017-03-02T04:33:15.040Z,0
2017-03-02T04:34:24.814Z,0
2017-03-02T04:35:34.561Z,0
2017-03-02T04:36:44.835Z,0
2017-03-02T04:37:54.593Z,0
2017-03-02T04:39:03.914Z,0
2017-03-02T04:40:13.670Z,0
2017-03-02T04:41:23.889Z,0
2017-03-02T04:42:34.126Z,0
2017-03-02T04:43:43.453Z,0
2017-03-02T04:44:53.639Z,0
2017-03-02T04:46:03.847Z,0
2017-03-02T04:47:13.606Z,0
2017-03-02T04:48:23.878Z,0
2017-03-02T04:49:33.195Z,0
2017-03-02T04:50:43.378Z,0
2017-03-02T04:51:53.623Z,0
2017-03-02T04:53:03.364Z,0
2017-03-02T04:54:13.625Z,0
2017-03-02T04:55:22.959Z,0
2017-03-02T04:56:32.286Z,0
2017-03-02T04:57:42.485Z,0
2017-03-02T04:58:51.822Z,0
2017-03-02T05:00:01.635Z,0
2017-03-02T05:01:11.828Z,0
2017-03-02T05:02:21.608Z,0
2017-03-02T05:03:31.790Z,0
2017-03-02T05:04:42.440Z,0
2017-03-02T05:05:53.096Z,0
2017-03-02T05:07:02.411Z,0
2017-03-02T05:08:12.175Z,0
2017-03-02T05:09:21.963Z,0
2017-03-02T05:10:31.272Z,0
2017-03-02T05:11:42.087Z,0
2017-03-02T05:12:51.894Z,0
2017-03-02T05:14:02.514Z,0
2017-03-02T05:15:12.290Z,0
2017-03-02T05:16:21.622Z,0
2017-03-02T05:17:31.869Z,0
2017-03-02T05:18:41.649Z,0
2017-03-02T05:19:51.426Z,0
2017-03-02T05:21:01.617Z,0
2017-03-02T05:22:10.940Z,0
2017-03-02T05:23:21.195Z,0
2017-03-02T05:24:30.515Z,0
2017-03-02T05:25:39.824Z,0
2017-03-02T05:26:50.025Z,0
2017-03-02T05:27:59.775Z,0
2017-03-02T05:29:09.675Z,0
2017-03-02T05:30:19.453Z,0
2017-03-02T05:31:28.786Z,0
2017-03-02T05:32:38.976Z,0
2017-03-02T05:33:48.746Z,0
2017-03-02T05:34:58.557Z,0
2017-03-02T05:36:08.318Z,0
2017-03-02T05:37:18.516Z,0
2017-03-02T05:38:29.159Z,0
2017-03-02T05:39:38.488Z,0
2017-03-02T05:40:48.317Z,0
2017-03-02T05:41:58.106Z,0
2017-03-02T05:43:07.435Z,0
2017-03-02T05:44:16.759Z,4
2017-03-02T05:45:26.524Z,4
2017-03-02T05:46:35.911Z,0
2017-03-02T05:47:45.676Z,4
2017-03-02T05:48:56.749Z,4
2017-03-02T05:50:06.523Z,4
2017-03-02T05:51:15.859Z,4
2017-03-02T05:52:25.657Z,8
2017-03-02T05:53:35.858Z,4
2017-03-02T05:54:45.603Z,8
2017-03-02T05:55:54.924Z,16
2017-03-02T05:57:04.706Z,20
2017-03-02T05:58:14.091Z,20
2017-03-02T05:59:23.852Z,28
2017-03-02T06:00:33.625Z,24
2017-03-02T06:01:42.957Z,28
2017-03-02T06:02:53.599Z,32
2017-03-02T06:04:03.393Z,24
2017-03-02T06:05:12.718Z,52
2017-03-02T06:06:22.066Z,72
2017-03-02T06:07:31.403Z,72
2017-03-02T06:08:41.196Z,76
2017-03-02T06:09:51.496Z,96
2017-03-02T06:11:01.248Z,92
2017-03-02T06:12:11.441Z,84
2017-03-02T06:13:20.790Z,100
2017-03-02T06:14:30.112Z,96
2017-03-02T06:15:40.385Z,76
2017-03-02T06:16:50.142Z,36
2017-03-02T06:17:59.490Z,56
2017-03-02T06:19:09.702Z,64
2017-03-02T06:20:18.997Z,64
2017-03-02T06:21:29.683Z,84
2017-03-02T06:22:39.002Z,120
2017-03-02T06:23:49.655Z,208
2017-03-02T06:24:59.409Z,256
2017-03-02T06:26:10.139Z,268
2017-03-02T06:27:19.952Z,276
2017-03-02T06:28:29.273Z,276
2017-03-02T06:29:39.036Z,284
2017-03-02T06:30:49.211Z,312
2017-03-02T06:31:59.405Z,328
2017-03-02T06:33:08.771Z,332
2017-03-02T06:34:18.538Z,340
2017-03-02T06:35:28.323Z,368
2017-03-02T06:36:38.537Z,372
2017-03-02T06:37:48.287Z,392
2017-03-02T06:38:57.664Z,444
2017-03-02T06:40:07.444Z,444
2017-03-02T06:41:17.686Z,484
2017-03-02T06:42:27.899Z,464
2017-03-02T06:43:38.097Z,436
2017-03-02T06:44:48.350Z,456
2017-03-02T06:45:59.078Z,468
2017-03-02T06:47:08.572Z,476
2017-03-02T06:48:18.333Z,500
2017-03-02T06:49:28.095Z,524
2017-03-02T06:50:37.914Z,492
2017-03-02T06:51:47.680Z,508
2017-03-02T06:52:57.429Z,548
2017-03-02T06:54:07.639Z,544
2017-03-02T06:55:17.393Z,524
2017-03-02T06:56:27.242Z,568
2017-03-02T06:57:36.561Z,560
2017-03-02T06:58:46.327Z,568
2017-03-02T06:59:55.992Z,580
2017-03-02T07:01:07.071Z,592
2017-03-02T07:02:17.451Z,628
2017-03-02T07:03:28.161Z,708
2017-03-02T07:04:37.488Z,1132
2017-03-02T07:05:48.345Z,1200
2017-03-02T07:06:58.538Z,1112
2017-03-02T07:08:09.230Z,656
2017-03-02T07:09:19.462Z,1008
2017-03-02T07:10:28.774Z,860
2017-03-02T07:11:38.961Z,1168
2017-03-02T07:12:48.864Z,1064
2017-03-02T07:14:00.051Z,1364
2017-03-02T07:15:11.347Z,2052
2017-03-02T07:16:22.105Z,1700
2017-03-02T07:17:32.831Z,2272
2017-03-02T07:18:43.000Z,2456
2017-03-02T07:19:55.180Z,1996
2017-03-02T07:21:07.238Z,1296
2017-03-02T07:22:16.674Z,892
2017-03-02T07:23:28.119Z,824
2017-03-02T07:24:39.428Z,948
2017-03-02T07:25:49.811Z,1124
2017-03-02T07:26:59.148Z,1480
2017-03-02T07:28:08.599Z,1908
2017-03-02T07:29:18.962Z,1976
2017-03-02T07:30:28.738Z,1864
2017-03-02T07:31:38.572Z,1864
2017-03-02T07:32:48.013Z,2356
2017-03-02T07:33:57.882Z,1932
2017-03-02T07:35:07.203Z,1572
2017-03-02T07:36:16.757Z,1436
2017-03-02T07:37:26.250Z,1480
2017-03-02T07:38:36.405Z,1648
2017-03-02T07:39:45.926Z,1876
2017-03-02T07:40:56.257Z,1968
2017-03-02T07:42:06.165Z,2188
2017-03-02T07:43:17.122Z,2240
2017-03-02T07:44:27.899Z,2368
2017-03-02T07:45:40.300Z,2344
2017-03-02T07:46:52.386Z,2240
2017-03-02T07:48:04.106Z,2276
2017-03-02T07:49:13.468Z,1876
2017-03-02T07:50:23.222Z,1824
2017-03-02T07:51:35.707Z,1956
2017-03-02T07:52:45.103Z,2136
2017-03-02T07:53:56.997Z,2936
2017-03-02T07:55:07.587Z,3064
2017-03-02T07:56:16.931Z,2832
2017-03-02T07:57:26.989Z,2680
2017-03-02T07:58:36.770Z,2656
2017-03-02T07:59:48.662Z,2212
2017-03-02T08:01:01.419Z,3352
2017-03-02T08:02:14.653Z,2496
2017-03-02T08:03:26.998Z,3312
2017-03-02T08:04:41.233Z,2092
2017-03-02T08:05:53.901Z,2524
2017-03-02T08:07:07.537Z,2832
2017-03-02T08:08:17.800Z,2384
2017-03-02T08:09:28.053Z,3032
2017-03-02T08:10:37.377Z,3256
2017-03-02T08:11:46.742Z,3560
2017-03-02T08:12:56.925Z,3496
2017-03-02T08:14:06.693Z,3504
2017-03-02T08:15:16.939Z,3456
2017-03-02T08:16:26.712Z,3748
2017-03-02T08:17:36.522Z,3840
2017-03-02T08:18:46.295Z,4272
2017-03-02T08:19:56.915Z,4184
2017-03-02T08:21:06.672Z,4248
2017-03-02T08:22:16.853Z,4180
2017-03-02T08:23:27.410Z,4120
2017-03-02T08:24:37.279Z,3940
2017-03-02T08:25:49.666Z,3028
2017-03-02T08:26:58.991Z,3168
2017-03-02T08:28:08.563Z,3528
2017-03-02T08:29:19.286Z,3480
2017-03-02T08:30:29.033Z,3204
2017-03-02T08:31:38.808Z,3388
2017-03-02T08:32:49.001Z,3308
2017-03-02T08:33:59.198Z,3384
2017-03-02T08:35:08.592Z,3212
2017-03-02T08:36:18.353Z,2892
2017-03-02T08:37:28.454Z,2788
2017-03-02T08:38:38.197Z,3108
2017-03-02T08:39:47.521Z,3216
2017-03-02T08:40:57.093Z,4048
2017-03-02T08:42:06.407Z,3592
2017-03-02T08:43:16.407Z,5568
2017-03-02T08:44:26.687Z,4008
2017-03-02T08:45:38.701Z,4100
2017-03-02T08:46:49.275Z,4024
2017-03-02T08:47:59.471Z,4204
2017-03-02T08:49:10.106Z,3324
2017-03-02T08:50:20.169Z,3056
2017-03-02T08:51:29.932Z,3604
2017-03-02T08:52:39.520Z,3684
2017-03-02T08:53:48.863Z,4464
2017-03-02T08:54:58.619Z,4624
2017-03-02T08:56:08.380Z,3224
2017-03-02T08:57:18.136Z,3132
2017-03-02T08:58:27.951Z,3724
2017-03-02T08:59:37.528Z,4212
2017-03-02T09:00:47.834Z,3496
2017-03-02T09:01:57.605Z,3948
2017-03-02T09:03:08.088Z,4404
2017-03-02T09:04:18.526Z,5484
2017-03-02T09:05:28.411Z,5480
2017-03-02T09:06:38.691Z,4848
2017-03-02T09:07:48.885Z,4744
2017-03-02T09:08:58.218Z,4416
2017-03-02T09:10:07.960Z,4332
2017-03-02T09:11:18.011Z,3992
2017-03-02T09:12:27.757Z,4060
2017-03-02T09:13:37.090Z,4532
2017-03-02T09:14:48.531Z,4508
2017-03-02T09:15:58.809Z,4524
2017-03-02T09:17:09.525Z,4440
2017-03-02T09:18:19.623Z,4164
2017-03-02T09:19:29.455Z,3944
2017-03-02T09:20:39.077Z,4196
2017-03-02T09:21:49.331Z,4200
2017-03-02T09:22:59.567Z,3928
2017-03-02T09:24:10.208Z,4048
2017-03-02T09:25:20.427Z,4108
2017-03-02T09:26:30.608Z,4476
2017-03-02T09:27:40.418Z,5512
2017-03-02T09:28:50.115Z,6456
2017-03-02T09:30:00.608Z,5764
2017-03-02T09:31:10.376Z,5600
2017-03-02T09:32:19.706Z,5356
2017-03-02T09:33:30.107Z,5140
2017-03-02T09:34:40.291Z,5572
2017-03-02T09:35:50.621Z,6096
2017-03-02T09:37:00.503Z,6256
2017-03-02T09:38:09.832Z,6096
2017-03-02T09:39:19.184Z,6292
2017-03-02T09:40:29.369Z,6428
2017-03-02T09:41:39.135Z,6480
2017-03-02T09:42:49.321Z,6136
2017-03-02T09:43:58.842Z,5864
2017-03-02T09:45:08.287Z,5116
2017-03-02T09:46:17.928Z,4044
2017-03-02T09:47:27.818Z,2884
2017-03-02T09:48:37.843Z,3472
2017-03-02T09:49:48.259Z,2756
2017-03-02T09:50:57.617Z,1888
2017-03-02T09:52:07.413Z,2344
2017-03-02T09:53:18.499Z,1616
2017-03-02T09:54:28.505Z,2404
2017-03-02T09:55:38.452Z,3360
2017-03-02T09:56:48.267Z,3840
2017-03-02T09:57:58.012Z,3332
2017-03-02T09:59:07.761Z,4100
2017-03-02T10:00:18.327Z,4400
2017-03-02T10:01:28.174Z,4532
2017-03-02T10:02:38.427Z,4416
2017-03-02T10:03:48.178Z,4200
2017-03-02T10:04:57.927Z,4232
2017-03-02T10:06:07.256Z,4244
2017-03-02T10:07:16.586Z,4080
2017-03-02T10:08:26.399Z,4476
2017-03-02T10:09:35.830Z,4656
2017-03-02T10:10:45.604Z,5016
2017-03-02T10:11:55.828Z,4880
2017-03-02T10:13:05.592Z,5212
2017-03-02T10:14:15.433Z,5252
2017-03-02T10:15:24.760Z,5344
2017-03-02T10:16:35.410Z,5048
2017-03-02T10:17:46.039Z,5432
2017-03-02T10:18:56.662Z,3968
2017-03-02T10:20:06.818Z,6520
2017-03-02T10:21:17.601Z,5596
2017-03-02T10:22:27.589Z,4764
2017-03-02T10:23:37.359Z,3036
2017-03-02T10:24:47.419Z,3960
2017-03-02T10:25:58.385Z,4044
2017-03-02T10:27:08.138Z,4300
2017-03-02T10:28:18.772Z,5600
2017-03-02T10:29:28.543Z,4356
2017-03-02T10:30:38.753Z,4592
2017-03-02T10:31:48.262Z,5308
2017-03-02T10:32:58.013Z,4660
2017-03-02T10:34:07.365Z,5892
2017-03-02T10:35:18.477Z,5352
2017-03-02T10:36:28.344Z,5036
2017-03-02T10:37:38.593Z,3332
2017-03-02T10:38:47.918Z,4920
2017-03-02T10:39:57.818Z,4520
2017-03-02T10:41:07.139Z,2648
2017-03-02T10:42:17.495Z,3552
2017-03-02T10:43:27.311Z,2696
2017-03-02T10:44:36.655Z,2280
2017-03-02T10:45:46.150Z,2976
2017-03-02T10:46:55.486Z,2588
2017-03-02T10:48:04.816Z,4136
2017-03-02T10:49:14.843Z,3840
2017-03-02T10:50:24.585Z,3748
2017-03-02T10:51:34.344Z,4860
2017-03-02T10:52:44.972Z,4940
2017-03-02T10:53:54.841Z,3616
2017-03-02T10:55:04.279Z,4016
2017-03-02T10:56:14.032Z,4096
2017-03-02T10:57:24.348Z,5336
2017-03-02T10:58:37.799Z,3336
2017-03-02T10:59:58.253Z,3616
2017-03-02T11:01:18.654Z,3084
2017-03-02T11:02:36.239Z,3876
2017-03-02T11:03:54.869Z,3716
2017-03-02T11:05:11.922Z,4260
2017-03-02T11:06:23.386Z,5308
2017-03-02T11:07:34.011Z,5828
2017-03-02T11:08:46.157Z,3064
2017-03-02T11:09:55.958Z,3580
2017-03-02T11:11:06.258Z,3984
2017-03-02T11:12:15.569Z,4252
2017-03-02T11:13:24.909Z,4100
2017-03-02T11:14:34.684Z,3668
2017-03-02T11:15:44.471Z,3732
2017-03-02T11:16:55.160Z,3668
2017-03-02T11:18:06.223Z,5016
2017-03-02T11:19:15.975Z,6476
2017-03-02T11:20:25.736Z,7588
2017-03-02T11:21:35.483Z,6140
2017-03-02T11:22:46.164Z,9144
2017-03-02T11:23:55.497Z,7348
2017-03-02T11:25:06.133Z,6320
2017-03-02T11:26:15.910Z,5832
2017-03-02T11:27:26.139Z,7940
2017-03-02T11:28:36.198Z,5324
2017-03-02T11:29:46.709Z,5784
2017-03-02T11:30:58.837Z,6524
2017-03-02T11:32:10.004Z,7572
2017-03-02T11:33:20.629Z,6276
2017-03-02T11:34:32.463Z,6748
2017-03-02T11:35:43.829Z,6764
2017-03-02T11:36:53.777Z,7492
2017-03-02T11:38:03.975Z,7948
2017-03-02T11:39:14.161Z,5872
2017-03-02T11:40:23.981Z,7604
2017-03-02T11:41:33.755Z,7252
2017-03-02T11:42:43.504Z,9084
2017-03-02T11:43:53.270Z,10108
2017-03-02T11:45:03.467Z,8152
2017-03-02T11:46:13.296Z,5560
2017-03-02T11:47:23.681Z,6836
2017-03-02T11:48:33.029Z,5840
2017-03-02T11:49:43.220Z,5060
2017-03-02T11:50:52.541Z,5652
2017-03-02T11:52:02.052Z,7124
2017-03-02T11:53:11.950Z,4196
2017-03-02T11:54:21.573Z,5864
2017-03-02T11:55:31.340Z,4076
2017-03-02T11:56:41.521Z,5588
2017-03-02T11:57:51.755Z,5220
2017-03-02T11:59:01.301Z,4524
2017-03-02T12:00:11.005Z,4924
2017-03-02T12:01:20.975Z,4064
2017-03-02T12:02:30.744Z,3128
2017-03-02T12:03:42.009Z,3564
2017-03-02T12:04:52.635Z,4416
2017-03-02T12:06:02.376Z,5012
2017-03-02T12:07:12.148Z,3476
2017-03-02T12:08:21.919Z,3672
2017-03-02T12:09:31.598Z,3584
2017-03-02T12:10:42.229Z,4088
2017-03-02T12:11:52.434Z,5292
2017-03-02T12:13:02.227Z,2804
2017-03-02T12:14:12.452Z,3576
2017-03-02T12:15:22.416Z,4356
2017-03-02T12:16:32.159Z,3408
2017-03-02T12:17:41.491Z,3368
2017-03-02T12:18:51.706Z,2760
2017-03-02T12:20:01.465Z,4416
2017-03-02T12:21:11.808Z,3936
2017-03-02T12:22:21.597Z,3012
2017-03-02T12:23:30.926Z,2916
2017-03-02T12:24:40.269Z,3008
2017-03-02T12:25:50.911Z,3324
2017-03-02T12:27:00.718Z,3800
2017-03-02T12:28:10.063Z,3204
2017-03-02T12:29:19.821Z,2840
2017-03-02T12:30:30.028Z,3140
2017-03-02T12:31:40.219Z,2096
2017-03-02T12:32:50.020Z,2812
2017-03-02T12:33:59.347Z,3028
2017-03-02T12:35:09.104Z,2948
2017-03-02T12:36:18.863Z,2572
2017-03-02T12:37:28.192Z,2480
2017-03-02T12:38:37.989Z,2612
2017-03-02T12:39:47.763Z,1984
2017-03-02T12:40:57.086Z,2504
2017-03-02T12:42:06.395Z,2332
2017-03-02T12:43:16.608Z,1824
2017-03-02T12:44:26.843Z,1720
2017-03-02T12:45:36.612Z,1908
2017-03-02T12:46:45.929Z,2084
2017-03-02T12:47:55.741Z,2064
2017-03-02T12:49:05.496Z,1900
2017-03-02T12:50:15.748Z,1996
2017-03-02T12:51:25.966Z,2724
2017-03-02T12:52:35.728Z,2700
2017-03-02T12:53:45.060Z,2972
2017-03-02T12:54:55.274Z,3640
2017-03-02T12:56:05.095Z,4000
2017-03-02T12:57:15.323Z,3524
2017-03-02T12:58:25.545Z,3908
2017-03-02T12:59:35.298Z,3804
2017-03-02T13:00:44.598Z,4652
2017-03-02T13:01:54.397Z,5080
2017-03-02T13:03:04.154Z,4988
2017-03-02T13:04:13.906Z,5288
2017-03-02T13:05:23.647Z,5516
2017-03-02T13:06:33.388Z,4296
2017-03-02T13:07:42.770Z,5164
2017-03-02T13:08:52.999Z,5032
2017-03-02T13:10:02.761Z,5080
2017-03-02T13:11:12.077Z,4736
2017-03-02T13:12:22.741Z,5400
2017-03-02T13:13:32.561Z,5344
2017-03-02T13:14:42.304Z,5616
2017-03-02T13:15:51.655Z,5876
2017-03-02T13:17:01.461Z,6068
2017-03-02T13:18:11.211Z,5064
2017-03-02T13:19:21.042Z,5596
2017-03-02T13:20:30.352Z,5460
2017-03-02T13:21:40.119Z,5540
2017-03-02T13:22:49.898Z,5380
2017-03-02T13:23:59.235Z,5520
2017-03-02T13:25:08.616Z,5028
2017-03-02T13:26:17.945Z,4420
2017-03-02T13:27:27.730Z,4256
2017-03-02T13:28:38.363Z,4612
2017-03-02T13:29:48.112Z,4676
2017-03-02T13:30:58.349Z,4748
2017-03-02T13:32:08.122Z,4840
2017-03-02T13:33:18.328Z,4668
2017-03-02T13:34:28.085Z,4716
2017-03-02T13:35:37.406Z,4580
2017-03-02T13:36:47.251Z,4416
2017-03-02T13:37:57.879Z,4192
2017-03-02T13:39:08.129Z,3984
2017-03-02T13:40:17.459Z,3948
2017-03-02T13:41:27.204Z,4224
2017-03-02T13:42:36.592Z,4128
2017-03-02T13:43:46.382Z,4112
2017-03-02T13:44:55.717Z,3956
2017-03-02T13:46:05.924Z,3820
2017-03-02T13:47:16.125Z,3728
2017-03-02T13:48:25.930Z,3856
2017-03-02T13:49:35.244Z,3960
2017-03-02T13:50:44.549Z,3916
2017-03-02T13:51:54.312Z,3648
2017-03-02T13:53:04.951Z,3288
2017-03-02T13:54:14.775Z,3012
2017-03-02T13:55:24.133Z,3000
2017-03-02T13:56:34.378Z,2952
2017-03-02T13:57:43.704Z,3088
2017-03-02T13:58:53.005Z,2928
2017-03-02T14:00:02.382Z,2984
2017-03-02T14:01:12.142Z,2940
2017-03-02T14:02:21.909Z,2916
2017-03-02T14:03:31.660Z,2832
2017-03-02T14:04:41.423Z,3020
2017-03-02T14:05:51.249Z,3116
2017-03-02T14:07:00.560Z,3168
2017-03-02T14:08:10.745Z,3048
2017-03-02T14:09:20.051Z,2968
2017-03-02T14:10:29.835Z,2928
2017-03-02T14:11:39.810Z,2968
2017-03-02T14:12:49.127Z,2780
2017-03-02T14:13:58.432Z,2556
2017-03-02T14:15:08.645Z,2400
2017-03-02T14:16:18.838Z,2308
2017-03-02T14:17:28.679Z,2060
2017-03-02T14:18:38.443Z,2128
2017-03-02T14:19:48.636Z,2448
2017-03-02T14:20:58.817Z,2484
2017-03-02T14:22:08.599Z,2396
2017-03-02T14:23:18.462Z,2224
2017-03-02T14:24:28.679Z,1864
2017-03-02T14:25:38.460Z,1792
2017-03-02T14:26:48.205Z,1540
2017-03-02T14:27:58.409Z,1528
2017-03-02T14:29:08.664Z,1676
2017-03-02T14:30:17.977Z,1804
2017-03-02T14:31:27.745Z,2080
2017-03-02T14:32:38.371Z,2316
2017-03-02T14:33:48.175Z,2204
2017-03-02T14:34:58.020Z,2072
2017-03-02T14:36:08.230Z,1672
2017-03-02T14:37:17.548Z,1772
2017-03-02T14:38:26.893Z,1592
2017-03-02T14:39:36.650Z,1336
2017-03-02T14:40:46.467Z,1292
2017-03-02T14:41:56.209Z,996
2017-03-02T14:43:05.980Z,1028
2017-03-02T14:44:16.162Z,716
2017-03-02T14:45:25.952Z,756
2017-03-02T14:46:35.764Z,740
2017-03-02T14:47:45.522Z,764
2017-03-02T14:48:54.846Z,1012
2017-03-02T14:50:05.052Z,664
2017-03-02T14:51:14.366Z,608
2017-03-02T14:52:24.591Z,548
2017-03-02T14:53:34.352Z,1108
2017-03-02T14:54:44.096Z,1816
2017-03-02T14:55:53.867Z,2448
2017-03-02T14:57:03.622Z,3148
2017-03-02T14:58:12.991Z,3364
2017-03-02T14:59:23.186Z,2856
2017-03-02T15:00:32.502Z,1972
2017-03-02T15:01:41.809Z,2364
2017-03-02T15:02:51.138Z,2692
2017-03-02T15:04:01.440Z,2264
2017-03-02T15:05:11.211Z,2388
2017-03-02T15:06:20.544Z,1928
2017-03-02T15:07:30.747Z,2068
2017-03-02T15:08:40.500Z,2208
2017-03-02T15:09:50.312Z,2152
2017-03-02T15:11:00.061Z,2496
2017-03-02T15:12:09.799Z,1808
2017-03-02T15:13:19.544Z,2476
2017-03-02T15:14:29.736Z,2848
2017-03-02T15:15:39.527Z,2960
2017-03-02T15:16:49.755Z,3316
2017-03-02T15:17:59.527Z,3160
2017-03-02T15:19:10.190Z,3452
2017-03-02T15:20:19.966Z,3184
2017-03-02T15:21:29.796Z,2100
2017-03-02T15:22:39.576Z,2072
2017-03-02T15:23:49.823Z,2116
2017-03-02T15:24:59.140Z,1908
2017-03-02T15:26:09.764Z,2040
2017-03-02T15:27:19.570Z,2152
2017-03-02T15:28:28.940Z,2096
2017-03-02T15:29:38.692Z,2016
2017-03-02T15:30:48.442Z,1868
2017-03-02T15:31:58.619Z,1512
2017-03-02T15:33:07.981Z,1456
2017-03-02T15:34:18.225Z,1688
2017-03-02T15:35:27.561Z,1572
2017-03-02T15:36:37.767Z,1524
2017-03-02T15:37:47.977Z,1480
2017-03-02T15:38:58.221Z,1168
2017-03-02T15:40:08.872Z,860
2017-03-02T15:41:18.629Z,784
2017-03-02T15:42:27.966Z,820
2017-03-02T15:43:38.159Z,868
2017-03-02T15:44:47.527Z,892
2017-03-02T15:45:56.864Z,928
2017-03-02T15:47:06.639Z,968
2017-03-02T15:48:16.844Z,1052
2017-03-02T15:49:26.601Z,1144
2017-03-02T15:50:36.426Z,1252
2017-03-02T15:51:45.727Z,1420
2017-03-02T15:52:55.489Z,1680
2017-03-02T15:54:04.838Z,2040
2017-03-02T15:55:14.579Z,2264
2017-03-02T15:56:24.835Z,2280
2017-03-02T15:57:35.058Z,2324
2017-03-02T15:58:45.235Z,2128
2017-03-02T15:59:54.999Z,2072
2017-03-02T16:01:04.753Z,2156
2017-03-02T16:02:14.553Z,2304
2017-03-02T16:03:24.756Z,2156
2017-03-02T16:04:34.112Z,2160
2017-03-02T16:05:43.880Z,2064
2017-03-02T16:06:54.057Z,2232
2017-03-02T16:08:03.877Z,2052
2017-03-02T16:09:14.073Z,2012
2017-03-02T16:10:23.827Z,1792
2017-03-02T16:11:33.630Z,1576
2017-03-02T16:12:42.936Z,1192